Time;durP1;ratioP1;P1;durP2;ratioP2;P2;SDS_P1;SDS_P2;PMS_P1;PMS_P2;Temp;Humidity;BMP_temperature;BMP_pressure;BME280_temperature;BME280_humidity;BME280_pressure;Samples;Min_cycle;Max_cycle;Signal;HPM_P1;HPM_P2
2022/05/07 00:02:32;;;;;;;6.07;5.47;;;21.20;70.10;;;;;;5003587;28;20458;-69
2022/05/07 00:04:58;;;;;;;6.53;5.70;;;21.20;70.20;;;;;;4973320;28;20531;-69
2022/05/07 00:07:24;;;;;;;6.07;4.93;;;21.20;70.20;;;;;;4973446;28;20415;-69
2022/05/07 00:09:50;;;;;;;5.60;5.10;;;21.20;70.30;;;;;;4957194;28;20473;-69
2022/05/07 00:12:16;;;;;;;5.90;5.30;;;21.20;70.30;;;;;;4973201;28;20425;-69
2022/05/07 00:14:45;;;;;;;6.77;6.07;;;21.10;70.20;;;;;;4957134;28;20515;-69
2022/05/07 00:19:58;;;;;;;6.23;5.43;;;21.10;70.30;;;;;;4972901;28;20941;-69
2022/05/07 00:22:24;;;;;;;6.77;5.47;;;21.10;70.30;;;;;;4974158;28;20412;-70
2022/05/07 00:24:50;;;;;;;6.40;5.30;;;21.10;70.30;;;;;;4974199;28;20237;-70
2022/05/07 00:27:16;;;;;;;6.50;5.90;;;21.10;70.30;;;;;;4973115;28;20891;-69
2022/05/07 00:29:42;;;;;;;5.83;5.30;;;21.10;70.30;;;;;;4956766;28;20484;-69
2022/05/07 00:32:09;;;;;;;5.93;5.33;;;21.10;70.30;;;;;;4956879;28;20942;-69
2022/05/07 00:34:38;;;;;;;6.63;6.00;;;21.00;70.30;;;;;;4973861;28;20401;-69
2022/05/07 00:37:06;;;;;;;6.67;5.30;;;21.00;70.30;;;;;;4980589;28;20444;-69
2022/05/07 00:39:32;;;;;;;6.80;5.77;;;21.00;70.30;;;;;;4976120;28;20444;-69
2022/05/07 00:42:05;;;;;;;6.00;4.87;;;21.00;70.30;;;;;;4992010;28;20480;-69
2022/05/07 00:44:34;;;;;;;6.30;5.70;;;21.00;70.30;;;;;;4992120;28;20450;-69
2022/05/07 00:47:17;;;;;;;7.83;6.27;;;20.90;70.20;;;;;;4975842;28;20845;-69
2022/05/07 00:49:49;;;;;;;7.37;6.03;;;20.90;70.20;;;;;;4992146;28;20526;-70
2022/05/07 00:52:18;;;;;;;6.13;5.60;;;20.90;70.20;;;;;;4993149;28;20914;-69
2022/05/07 00:54:47;;;;;;;7.00;5.80;;;20.90;70.30;;;;;;4975966;28;20424;-69
2022/05/07 00:57:15;;;;;;;6.20;5.60;;;20.80;70.20;;;;;;4992054;28;20422;-69
2022/05/07 00:59:42;;;;;;;7.63;5.90;;;20.80;70.20;;;;;;4991931;28;21036;-69
2022/05/07 01:02:09;;;;;;;6.07;5.33;;;20.80;70.20;;;;;;5008261;28;20491;-69
2022/05/07 01:04:36;;;;;;;7.03;6.33;;;20.80;70.30;;;;;;4991758;28;20468;-69
2022/05/07 01:07:03;;;;;;;6.00;5.40;;;20.70;70.10;;;;;;4984635;28;20427;-69
2022/05/07 01:09:33;;;;;;;6.07;5.53;;;20.80;70.30;;;;;;4956380;28;20511;-69
2022/05/07 01:11:59;;;;;;;6.47;5.83;;;20.70;70.20;;;;;;4972116;28;20443;-69
2022/05/07 01:14:27;;;;;;;6.30;5.60;;;20.70;70.20;;;;;;4972317;28;20455;-70
2022/05/07 01:16:54;;;;;;;8.23;6.70;;;20.70;70.20;;;;;;4972316;28;20414;-69
2022/05/07 01:19:20;;;;;;;5.63;5.13;;;20.70;70.30;;;;;;4973420;28;20443;-70
2022/05/07 01:21:46;;;;;;;7.03;6.10;;;20.60;70.20;;;;;;4956430;28;20428;-70
2022/05/07 01:24:15;;;;;;;7.13;6.37;;;20.60;70.20;;;;;;4972098;28;20477;-69
2022/05/07 01:26:43;;;;;;;6.10;5.50;;;20.60;70.20;;;;;;4972397;28;20431;-69
2022/05/07 01:29:11;;;;;;;6.63;5.63;;;20.60;70.30;;;;;;4956216;28;20459;-68
2022/05/07 01:31:44;;;;;;;7.10;6.40;;;20.60;70.30;;;;;;4971983;28;20475;-69
2022/05/07 01:34:15;;;;;;;5.83;5.30;;;20.50;70.10;;;;;;4956164;28;20437;-69
2022/05/07 01:36:47;;;;;;;7.67;5.90;;;20.50;70.20;;;;;;4956127;28;20485;-70
2022/05/07 01:39:21;;;;;;;6.40;5.77;;;20.50;70.20;;;;;;4956433;28;20906;-69
2022/05/07 01:41:48;;;;;;;7.33;6.63;;;20.50;70.30;;;;;;4971793;28;20482;-69
2022/05/07 01:44:14;;;;;;;5.97;5.37;;;20.50;70.20;;;;;;4971893;28;20966;-69
2022/05/07 01:49:35;;;;;;;6.33;5.73;;;20.40;70.20;;;;;;4959414;28;20561;-69
2022/05/07 01:52:04;;;;;;;9.17;6.40;;;20.40;70.20;;;;;;4975796;28;20401;-69
2022/05/07 01:54:33;;;;;;;7.03;5.43;;;20.40;70.20;;;;;;4959875;28;20406;-69
2022/05/07 01:57:03;;;;;;;7.00;6.40;;;20.40;70.30;;;;;;4975762;28;20404;-69
2022/05/07 01:59:28;;;;;;;6.27;5.67;;;20.30;70.20;;;;;;4959622;28;20980;-69
2022/05/07 02:01:57;;;;;;;6.83;6.13;;;20.30;70.20;;;;;;4975425;28;20401;-69
2022/05/07 02:04:24;;;;;;;6.87;6.17;;;20.30;70.30;;;;;;4975406;28;20439;-70
2022/05/07 02:06:52;;;;;;;7.50;6.37;;;20.30;70.30;;;;;;4975417;28;20770;-69
2022/05/07 02:09:19;;;;;;;6.83;6.13;;;20.30;70.30;;;;;;4975336;28;20448;-69
2022/05/07 02:11:53;;;;;;;8.90;6.10;;;20.20;70.20;;;;;;4975261;28;20542;-69
2022/05/07 02:14:19;;;;;;;7.57;6.43;;;20.20;70.30;;;;;;4959223;28;20397;-69
2022/05/07 02:16:47;;;;;;;6.53;5.80;;;20.20;70.30;;;;;;4959248;28;20422;-69
2022/05/07 02:19:16;;;;;;;7.63;5.33;;;20.20;70.30;;;;;;4958923;28;20465;-69
2022/05/07 02:21:44;;;;;;;6.20;5.60;;;20.20;70.30;;;;;;4970929;28;20445;-70
2022/05/07 02:24:14;;;;;;;7.30;6.00;;;20.20;70.30;;;;;;4978797;28;20457;-70
2022/05/07 02:26:43;;;;;;;9.53;6.70;;;20.20;70.40;;;;;;4994487;28;20398;-69
2022/05/07 02:29:14;;;;;;;7.60;5.70;;;20.10;70.30;;;;;;4978368;28;20448;-69
2022/05/07 02:31:41;;;;;;;7.60;6.23;;;20.10;70.30;;;;;;4994253;28;20519;-69
2022/05/07 02:34:07;;;;;;;7.37;6.50;;;20.10;70.40;;;;;;4978304;28;20430;-70
2022/05/07 02:36:36;;;;;;;6.47;5.93;;;20.10;70.40;;;;;;5004058;28;20445;-69
2022/05/07 02:39:03;;;;;;;7.00;6.27;;;20.10;70.40;;;;;;4990864;28;20530;-69
2022/05/07 02:44:26;;;;;;;7.50;6.80;;;20.00;70.40;;;;;;4965574;28;20472;-69
2022/05/07 02:46:55;;;;;;;7.03;6.43;;;20.00;70.40;;;;;;4974458;28;20427;-69
2022/05/07 02:49:21;;;;;;;7.07;6.37;;;20.00;70.50;;;;;;4990827;28;20466;-69
2022/05/07 02:51:47;;;;;;;7.33;6.33;;;20.00;70.50;;;;;;4974555;28;20852;-69
2022/05/07 02:54:16;;;;;;;7.20;6.50;;;20.00;70.60;;;;;;4974804;28;20783;-69
2022/05/07 02:56:42;;;;;;;8.50;6.97;;;19.90;70.50;;;;;;4990655;28;20893;-69
2022/05/07 02:59:09;;;;;;;7.97;7.10;;;19.90;70.50;;;;;;4989488;28;20437;-69
2022/05/07 03:01:37;;;;;;;7.07;6.13;;;19.90;70.60;;;;;;4958695;28;20423;-69
2022/05/07 03:04:06;;;;;;;7.63;6.83;;;19.90;70.60;;;;;;4990535;28;20811;-69
2022/05/07 03:06:34;;;;;;;7.27;6.57;;;19.90;70.60;;;;;;4979098;28;20446;-69
2022/05/07 03:09:01;;;;;;;7.83;7.03;;;19.80;70.60;;;;;;4993703;28;20448;-69
2022/05/07 03:11:28;;;;;;;7.90;6.83;;;19.80;70.60;;;;;;4993472;28;20480;-69
2022/05/07 03:13:56;;;;;;;7.23;6.40;;;19.80;70.70;;;;;;4993673;28;20397;-70
2022/05/07 03:16:26;;;;;;;8.53;6.57;;;19.80;70.70;;;;;;4977695;28;20939;-69
2022/05/07 03:18:55;;;;;;;8.00;6.93;;;19.70;70.60;;;;;;4993544;28;20470;-70
2022/05/07 03:21:22;;;;;;;11.60;6.70;;;19.70;70.60;;;;;;4993512;28;20413;-69
2022/05/07 03:23:48;;;;;;;7.60;6.83;;;19.80;70.80;;;;;;4993552;28;20483;-69
2022/05/07 03:26:21;;;;;;;7.33;6.30;;;19.70;70.70;;;;;;4993469;28;20898;-69
2022/05/07 03:28:53;;;;;;;8.00;7.20;;;19.70;70.80;;;;;;4994444;28;20443;-69
2022/05/07 03:31:21;;;;;;;9.67;8.10;;;19.70;70.80;;;;;;4993291;28;20510;-69
2022/05/07 03:33:50;;;;;;;8.60;6.80;;;19.70;70.90;;;;;;4977257;28;20417;-69
2022/05/07 03:36:20;;;;;;;8.30;7.07;;;19.60;70.80;;;;;;4993509;28;20531;-69
2022/05/07 03:38:50;;;;;;;7.43;6.60;;;19.60;70.80;;;;;;5009421;28;20434;-69
2022/05/07 03:41:22;;;;;;;9.77;6.70;;;19.60;71.70;;;;;;5009624;28;20965;-69
2022/05/07 03:43:51;;;;;;;8.20;7.37;;;19.60;71.00;;;;;;4977014;28;20445;-69
2022/05/07 03:46:21;;;;;;;9.97;7.83;;;19.60;71.00;;;;;;4993323;28;20476;-69
2022/05/07 03:48:58;;;;;;;7.77;6.93;;;19.50;71.00;;;;;;4993850;28;20435;-69
2022/05/07 03:51:27;;;;;;;10.87;6.60;;;19.60;71.20;;;;;;4992855;28;20564;-69
2022/05/07 03:54:03;;;;;;;9.37;7.80;;;19.50;71.10;;;;;;4992988;28;20421;-69
2022/05/07 03:56:31;;;;;;;8.23;6.83;;;19.50;71.10;;;;;;4992891;28;20492;-69
2022/05/07 03:59:02;;;;;;;8.80;7.47;;;19.50;71.10;;;;;;5009166;28;20432;-70
2022/05/07 04:01:41;;;;;;;11.50;7.97;;;19.50;71.20;;;;;;4993825;28;20443;-69
2022/05/07 04:04:12;;;;;;;9.00;7.77;;;19.50;71.20;;;;;;5009084;28;20422;-69
2022/05/07 04:06:38;;;;;;;8.80;7.90;;;19.40;71.20;;;;;;4987577;28;20429;-69
2022/05/07 04:09:07;;;;;;;11.80;8.47;;;19.40;71.20;;;;;;4973082;28;20462;-69
2022/05/07 04:11:34;;;;;;;9.07;8.17;;;19.40;71.40;;;;;;4972042;28;20481;-70
2022/05/07 04:14:02;;;;;;;9.43;8.53;;;19.40;71.30;;;;;;4957437;28;20428;-69
2022/05/07 04:16:31;;;;;;;9.93;8.17;;;19.40;71.40;;;;;;4957844;28;20504;-69
2022/05/07 04:19:04;;;;;;;9.80;8.80;;;19.30;71.40;;;;;;4972873;28;20461;-69
2022/05/07 04:21:32;;;;;;;9.40;8.40;;;19.40;71.50;;;;;;4957100;28;20418;-69
2022/05/07 04:24:13;;;;;;;8.80;7.90;;;19.30;71.40;;;;;;4972881;28;20951;-69
2022/05/07 04:26:40;;;;;;;9.40;8.33;;;19.30;71.50;;;;;;4972989;28;20406;-69
2022/05/07 04:29:16;;;;;;;9.40;8.50;;;19.30;71.50;;;;;;4956877;28;20453;-69
2022/05/07 04:31:44;;;;;;;10.00;9.03;;;19.30;71.60;;;;;;4972795;28;20452;-69
2022/05/07 04:34:11;;;;;;;10.50;9.43;;;19.30;71.60;;;;;;4972872;28;20436;-69
2022/05/07 04:36:37;;;;;;;10.20;8.87;;;19.20;71.50;;;;;;4972794;28;20417;-69
2022/05/07 04:39:08;;;;;;;9.40;8.10;;;19.20;72.40;;;;;;4957285;28;20962;-69
2022/05/07 04:41:53;;;;;;;8.67;7.77;;;19.20;72.50;;;;;;4972561;28;20874;-69
2022/05/07 04:44:24;;;;;;;9.20;8.27;;;19.20;71.80;;;;;;4956900;28;20510;-69
2022/05/07 04:46:53;;;;;;;13.00;8.50;;;19.20;71.80;;;;;;4973875;28;20406;-69
2022/05/07 04:49:22;;;;;;;9.70;8.70;;;19.20;71.80;;;;;;4956627;28;20452;-69
2022/05/07 04:51:53;;;;;;;8.70;7.80;;;19.20;71.80;;;;;;4972417;28;20450;-69
2022/05/07 04:54:23;;;;;;;9.87;8.47;;;19.20;71.90;;;;;;4972551;28;20433;-69
2022/05/07 04:56:51;;;;;;;11.23;9.20;;;19.10;71.90;;;;;;4972548;28;20410;-70
2022/05/07 04:59:22;;;;;;;9.13;8.23;;;19.10;71.90;;;;;;4972698;28;20982;-69
2022/05/07 05:02:08;;;;;;;10.03;8.63;;;19.10;71.90;;;;;;4956512;28;20793;-69
2022/05/07 05:04:39;;;;;;;8.77;7.87;;;19.10;72.00;;;;;;4972493;28;20409;-69
2022/05/07 05:07:10;;;;;;;9.70;7.60;;;19.00;71.90;;;;;;4956591;28;20440;-69
2022/05/07 05:09:41;;;;;;;10.50;8.37;;;19.00;72.00;;;;;;4964697;28;20535;-69
2022/05/07 05:12:20;;;;;;;10.47;8.90;;;19.00;72.10;;;;;;5007728;28;20954;-69
2022/05/07 05:15:03;;;;;;;11.07;9.60;;;19.00;72.10;;;;;;5008007;28;20895;-69
2022/05/07 05:17:53;;;;;;;9.40;8.33;;;19.00;72.30;;;;;;4987265;28;20456;-69
2022/05/07 05:20:21;;;;;;;11.00;9.00;;;19.00;72.40;;;;;;4975619;28;20458;-70
2022/05/07 05:23:09;;;;;;;10.07;8.70;;;19.00;72.50;;;;;;4988830;28;20431;-69
2022/05/07 05:25:45;;;;;;;12.03;9.60;;;18.90;72.50;;;;;;4995491;28;20447;-69
2022/05/07 05:28:20;;;;;;;12.50;8.93;;;18.90;72.60;;;;;;4979622;28;20463;-70
2022/05/07 05:30:52;;;;;;;10.43;9.33;;;18.90;72.70;;;;;;4995380;28;20510;-69
2022/05/07 05:33:22;;;;;;;10.13;9.20;;;18.90;72.80;;;;;;5011819;28;20400;-69
2022/05/07 05:36:02;;;;;;;12.17;9.80;;;18.90;72.90;;;;;;4979424;28;20425;-70
2022/05/07 05:38:31;;;;;;;11.10;9.37;;;18.90;73.00;;;;;;5011675;28;20433;-69
2022/05/07 05:40:57;;;;;;;9.40;8.50;;;18.90;73.20;;;;;;5010797;28;20954;-70
2022/05/07 05:43:31;;;;;;;9.67;8.70;;;18.90;73.30;;;;;;4979257;28;20969;-69
2022/05/07 05:46:02;;;;;;;9.43;8.43;;;18.90;73.40;;;;;;4979378;28;20416;-69
2022/05/07 05:48:30;;;;;;;10.70;9.20;;;18.90;73.50;;;;;;4995085;28;20482;-70
2022/05/07 05:50:59;;;;;;;11.10;9.83;;;18.90;73.70;;;;;;4995218;28;20446;-69
2022/05/07 05:53:31;;;;;;;10.30;9.20;;;18.80;73.60;;;;;;5011391;28;20405;-69
2022/05/07 05:56:00;;;;;;;10.90;9.80;;;18.80;73.60;;;;;;5011402;28;20401;-69
2022/05/07 05:58:37;;;;;;;11.60;9.37;;;18.80;73.80;;;;;;4995016;28;20439;-69
2022/05/07 06:01:07;;;;;;;10.80;9.80;;;18.80;73.70;;;;;;4995120;28;20440;-70
2022/05/07 06:03:36;;;;;;;15.40;12.53;;;18.80;73.70;;;;;;4995013;28;20407;-69
2022/05/07 06:06:02;;;;;;;11.73;10.63;;;18.80;73.80;;;;;;4995065;28;20589;-69
2022/05/07 06:08:28;;;;;;;10.97;9.87;;;18.80;74.00;;;;;;4994963;28;20457;-69
2022/05/07 06:11:00;;;;;;;11.17;9.97;;;18.80;74.10;;;;;;4975261;28;20509;-70
2022/05/07 06:13:30;;;;;;;11.97;10.60;;;18.80;74.20;;;;;;4975424;28;20808;-69
2022/05/07 06:15:56;;;;;;;10.73;9.53;;;18.80;74.20;;;;;;4975567;28;20487;-69
2022/05/07 06:18:29;;;;;;;13.33;12.00;;;18.80;74.20;;;;;;4975320;28;20997;-70
2022/05/07 06:21:04;;;;;;;15.20;11.47;;;18.80;74.30;;;;;;4975151;28;20829;-69
2022/05/07 06:23:40;;;;;;;15.00;12.50;;;18.80;74.30;;;;;;4991155;28;20851;-70
2022/05/07 06:29:02;;;;;;;13.17;11.03;;;18.80;74.40;;;;;;4990898;28;20440;-69
2022/05/07 06:31:39;;;;;;;13.10;11.73;;;18.80;74.30;;;;;;4974772;28;20456;-70
2022/05/07 06:34:06;;;;;;;12.73;11.30;;;18.80;74.30;;;;;;4990981;28;20448;-69
2022/05/07 06:36:32;;;;;;;13.00;11.73;;;18.70;74.20;;;;;;4959003;28;20438;-69
2022/05/07 06:38:58;;;;;;;12.17;10.97;;;18.80;74.20;;;;;;4982481;28;20444;-70
2022/05/07 06:41:27;;;;;;;12.80;11.50;;;18.80;74.30;;;;;;4988680;28;20772;-70
2022/05/07 06:44:00;;;;;;;13.83;12.03;;;18.70;74.30;;;;;;4958714;28;20912;-70
2022/05/07 06:46:31;;;;;;;13.37;12.00;;;18.70;74.40;;;;;;4958958;28;20420;-70
2022/05/07 06:49:04;;;;;;;13.23;10.37;;;18.70;74.40;;;;;;4958708;28;20737;-70
2022/05/07 06:51:47;;;;;;;12.00;10.83;;;18.70;74.30;;;;;;4974564;28;20473;-70
2022/05/07 06:54:15;;;;;;;13.37;10.93;;;18.80;74.40;;;;;;4975763;28;20425;-69
2022/05/07 06:56:44;;;;;;;12.47;10.40;;;18.70;74.30;;;;;;4958649;28;20417;-69
2022/05/07 06:59:12;;;;;;;11.27;10.20;;;18.80;74.50;;;;;;4958597;28;20592;-70
2022/05/07 07:01:41;;;;;;;12.70;11.50;;;18.70;74.40;;;;;;4974384;28;20424;-70
2022/05/07 07:04:10;;;;;;;12.80;11.50;;;18.70;74.50;;;;;;4974526;28;20448;-70
2022/05/07 07:06:36;;;;;;;11.87;9.43;;;18.70;74.60;;;;;;4974630;28;20433;-69
2022/05/07 07:09:03;;;;;;;10.83;9.80;;;18.70;74.50;;;;;;5038219;23;20523;-70
2022/05/07 07:11:29;;;;;;;12.00;10.80;;;18.80;74.50;;;;;;4979892;28;20524;-70
2022/05/07 07:13:55;;;;;;;11.47;9.63;;;18.80;74.30;;;;;;4974892;28;20954;-70
2022/05/07 07:16:21;;;;;;;9.67;8.73;;;18.80;74.20;;;;;;4975082;28;20206;-71
2022/05/07 07:18:47;;;;;;;10.33;9.33;;;18.80;74.20;;;;;;4942105;28;20490;-71
2022/05/07 07:21:14;;;;;;;11.27;10.20;;;18.80;74.00;;;;;;4975103;28;20812;-70
2022/05/07 07:23:42;;;;;;;11.03;9.80;;;18.80;74.00;;;;;;4975075;28;20413;-71
2022/05/07 07:26:08;;;;;;;12.97;10.70;;;18.80;74.20;;;;;;4949959;29;20449;-70
2022/05/07 07:28:34;;;;;;;12.60;11.17;;;18.80;74.00;;;;;;4943742;29;21034;-70
2022/05/07 07:31:03;;;;;;;11.10;10.00;;;18.80;73.90;;;;;;4940182;29;20246;-70
2022/05/07 07:33:32;;;;;;;10.23;9.23;;;18.80;73.80;;;;;;4949838;29;20419;-70
2022/05/07 07:35:58;;;;;;;11.10;10.00;;;18.80;73.70;;;;;;4970442;28;20433;-71
2022/05/07 07:38:24;;;;;;;14.63;10.17;;;18.80;73.60;;;;;;4938368;29;20873;-71
2022/05/07 07:40:53;;;;;;;11.27;10.07;;;18.90;73.70;;;;;;4922552;29;20437;-71
2022/05/07 07:43:21;;;;;;;13.80;9.77;;;18.90;73.70;;;;;;4954412;29;20417;-70
2022/05/07 07:48:39;;;;;;;11.60;9.80;;;18.90;73.70;;;;;;4955258;29;20441;-71
2022/05/07 07:51:06;;;;;;;10.23;9.33;;;18.90;73.80;;;;;;4953830;29;20591;-70
2022/05/07 07:53:33;;;;;;;10.43;9.43;;;18.90;73.80;;;;;;4923384;29;20417;-71
2022/05/07 07:56:02;;;;;;;10.60;9.33;;;18.90;73.90;;;;;;4954181;29;20437;-71
2022/05/07 07:58:27;;;;;;;10.97;9.93;;;18.90;73.90;;;;;;4950721;28;20470;-71
2022/05/07 08:00:53;;;;;;;10.67;9.47;;;18.90;73.90;;;;;;4950138;29;20428;-71
2022/05/07 08:03:22;;;;;;;10.50;9.50;;;19.00;74.10;;;;;;4934802;29;20927;-70
2022/05/07 08:05:53;;;;;;;11.67;10.30;;;19.00;74.10;;;;;;4945967;29;20520;-70
2022/05/07 08:14:00;;;;;;;10.87;9.70;;;19.00;74.00;;;;;;4958974;28;20505;-70
2022/05/07 08:16:29;;;;;;;10.27;9.27;;;19.00;74.20;;;;;;4951388;29;20419;-70
2022/05/07 08:18:56;;;;;;;12.40;10.27;;;19.00;74.30;;;;;;4935675;29;20822;-69
2022/05/07 08:21:26;;;;;;;12.00;10.67;;;19.00;74.20;;;;;;4947264;29;20828;-69
2022/05/07 08:23:54;;;;;;;11.13;9.90;;;19.00;74.30;;;;;;4917437;29;20460;-68
2022/05/07 08:26:22;;;;;;;11.00;9.83;;;19.00;74.80;;;;;;4932222;29;20585;-71
2022/05/07 08:28:51;;;;;;;11.50;9.37;;;19.10;75.90;;;;;;4916495;29;20547;-71
2022/05/07 08:31:21;;;;;;;9.97;8.33;;;19.10;74.90;;;;;;4936909;29;20478;-70
2022/05/07 08:33:48;;;;;;;10.70;9.70;;;19.10;74.90;;;;;;4937221;29;20903;-71
2022/05/07 08:36:16;;;;;;;9.63;8.63;;;19.10;74.80;;;;;;4935436;29;20427;-71
2022/05/07 08:38:44;;;;;;;10.63;9.57;;;19.10;74.80;;;;;;4933417;29;20992;-70
2022/05/07 08:41:15;;;;;;;10.37;9.30;;;19.10;74.70;;;;;;4932244;28;20440;-70
2022/05/07 08:43:46;;;;;;;11.77;10.40;;;19.10;74.80;;;;;;4932114;29;20507;-72
2022/05/07 08:46:18;;;;;;;17.27;11.97;;;19.20;74.90;;;;;;4932276;29;20833;-73
2022/05/07 08:48:51;;;;;;;11.73;10.17;;;19.20;75.00;;;;;;4948559;29;20468;-72
2022/05/07 08:51:20;;;;;;;12.57;11.07;;;19.20;75.60;;;;;;4944659;28;20518;-69
2022/05/07 08:53:53;;;;;;;13.93;10.47;;;19.20;76.00;;;;;;4934733;29;20415;-70
2022/05/07 08:56:23;;;;;;;10.37;9.27;;;19.20;75.90;;;;;;4953200;28;20427;-69
2022/05/07 08:58:53;;;;;;;10.87;9.70;;;19.20;75.70;;;;;;4953627;29;20431;-71
2022/05/07 09:01:19;;;;;;;11.90;9.13;;;19.30;75.70;;;;;;4954279;29;20951;-69
2022/05/07 09:03:47;;;;;;;11.80;9.83;;;19.30;75.50;;;;;;4953957;29;20502;-69
2022/05/07 09:06:25;;;;;;;12.93;11.07;;;19.30;75.40;;;;;;4952682;29;20427;-71
2022/05/07 09:08:55;;;;;;;13.70;10.80;;;19.30;75.80;;;;;;4935017;29;20447;-71
2022/05/07 09:11:22;;;;;;;16.00;11.47;;;19.30;76.40;;;;;;4948682;28;20516;-68
2022/05/07 09:14:05;;;;;;;11.20;9.60;;;19.40;76.50;;;;;;4954847;29;20476;-69
2022/05/07 09:16:46;;;;;;;12.20;10.70;;;19.40;76.90;;;;;;4953829;29;20458;-68
2022/05/07 09:19:27;;;;;;;10.73;8.97;;;19.40;76.80;;;;;;4969594;28;20458;-68
2022/05/07 09:22:09;;;;;;;15.00;11.23;;;19.40;76.90;;;;;;4954985;29;20862;-68
2022/05/07 09:24:41;;;;;;;11.80;9.80;;;19.50;76.70;;;;;;4937967;29;20445;-69
2022/05/07 09:27:16;;;;;;;18.00;9.97;;;19.50;76.80;;;;;;4954911;29;20454;-69
2022/05/07 09:29:44;;;;;;;10.33;8.57;;;19.50;76.80;;;;;;4954920;29;20456;-68
2022/05/07 09:32:15;;;;;;;13.33;10.80;;;19.50;76.90;;;;;;4937460;29;20462;-68
2022/05/07 09:37:41;;;;;;;14.20;9.17;;;19.60;77.00;;;;;;4954842;29;20411;-68
2022/05/07 09:40:12;;;;;;;12.00;9.13;;;19.60;77.00;;;;;;4954500;29;20461;-69
2022/05/07 09:42:39;;;;;;;12.17;8.60;;;19.70;77.10;;;;;;4948704;28;20437;-68
2022/05/07 09:45:06;;;;;;;10.67;8.30;;;19.70;77.00;;;;;;4973270;28;20508;-68
2022/05/07 09:47:39;;;;;;;10.67;9.00;;;19.70;77.00;;;;;;4956461;28;20441;-69
2022/05/07 09:50:20;;;;;;;11.27;7.90;;;19.80;77.20;;;;;;4972407;28;20427;-69
2022/05/07 09:58:18;;;;;;;10.17;8.53;;;19.90;77.20;;;;;;4973377;28;20446;-69
2022/05/07 10:01:06;;;;;;;10.27;8.53;;;19.90;77.10;;;;;;4973236;28;20418;-68
2022/05/07 10:03:40;;;;;;;8.87;7.10;;;20.00;77.20;;;;;;4956113;28;20440;-69
2022/05/07 10:06:30;;;;;;;9.93;7.50;;;20.00;77.00;;;;;;4973332;28;20468;-69
2022/05/07 10:09:10;;;;;;;12.67;8.60;;;20.00;76.90;;;;;;4973884;28;20826;-69
2022/05/07 10:11:38;;;;;;;9.27;8.27;;;20.10;76.90;;;;;;4940238;29;20467;-69
2022/05/07 10:14:09;;;;;;;11.50;7.60;;;20.10;76.80;;;;;;4956350;29;20789;-69
2022/05/07 10:16:36;;;;;;;9.33;7.70;;;20.20;76.80;;;;;;4956188;29;20918;-69
2022/05/07 10:19:12;;;;;;;11.90;8.57;;;20.20;76.70;;;;;;4955255;29;20542;-72
2022/05/07 10:21:40;;;;;;;9.67;8.07;;;20.20;76.70;;;;;;4954258;29;20405;-68
2022/05/07 10:24:08;;;;;;;12.23;8.40;;;20.20;76.50;;;;;;4956181;29;20497;-68
2022/05/07 10:26:42;;;;;;;12.53;8.30;;;20.30;76.50;;;;;;4956093;29;20978;-68
2022/05/07 10:29:23;;;;;;;11.73;7.83;;;20.30;76.60;;;;;;4956040;29;20489;-68
2022/05/07 10:32:06;;;;;;;10.10;8.10;;;20.40;76.70;;;;;;4955954;29;20932;-68
2022/05/07 10:34:34;;;;;;;11.67;7.70;;;20.40;76.70;;;;;;4957196;29;20840;-68
2022/05/07 10:37:05;;;;;;;9.10;6.93;;;20.40;76.60;;;;;;4957409;28;20425;-68
2022/05/07 10:39:32;;;;;;;10.33;7.90;;;20.50;76.60;;;;;;4955977;29;20455;-69
2022/05/07 10:42:01;;;;;;;13.07;9.07;;;20.50;76.60;;;;;;4971941;28;20830;-68
2022/05/07 10:44:34;;;;;;;8.53;7.63;;;20.60;76.60;;;;;;4954202;28;20816;-68
2022/05/07 10:47:14;;;;;;;9.80;8.33;;;20.60;76.50;;;;;;4957051;29;20418;-68
2022/05/07 10:49:56;;;;;;;8.90;7.30;;;20.70;76.60;;;;;;4955681;29;20888;-69
2022/05/07 10:52:33;;;;;;;14.97;8.53;;;20.70;76.60;;;;;;4923868;29;20452;-68
2022/05/07 10:55:10;;;;;;;12.30;7.97;;;20.70;76.70;;;;;;4955920;29;20458;-68
2022/05/07 10:57:43;;;;;;;10.60;7.70;;;20.80;76.70;;;;;;4955757;29;20455;-69
2022/05/07 11:00:14;;;;;;;12.80;8.57;;;20.80;76.50;;;;;;4956785;29;20397;-69
2022/05/07 11:02:45;;;;;;;10.23;8.30;;;20.80;76.40;;;;;;4956810;28;20504;-68
2022/05/07 11:05:13;;;;;;;10.00;8.00;;;20.90;76.30;;;;;;4955570;29;20927;-69
2022/05/07 11:07:40;;;;;;;9.47;7.60;;;20.90;76.20;;;;;;4970770;28;20923;-69
2022/05/07 11:10:10;;;;;;;11.27;7.93;;;21.00;76.30;;;;;;4975878;28;20441;-69
2022/05/07 11:12:39;;;;;;;10.90;8.50;;;21.00;76.10;;;;;;4940987;28;20451;-69
2022/05/07 11:15:08;;;;;;;13.10;9.07;;;21.10;76.20;;;;;;4954938;29;20409;-68
2022/05/07 11:17:36;;;;;;;12.00;8.67;;;21.10;76.00;;;;;;4956177;29;20493;-68
2022/05/07 11:20:05;;;;;;;16.23;8.60;;;21.10;75.70;;;;;;4938389;29;20430;-67
2022/05/07 11:22:31;;;;;;;10.20;8.77;;;21.10;75.40;;;;;;4939281;29;20431;-67
2022/05/07 11:25:01;;;;;;;10.17;8.60;;;21.20;75.20;;;;;;4956280;29;20446;-67
2022/05/07 11:27:32;;;;;;;11.73;9.30;;;21.20;74.80;;;;;;4939128;29;20469;-67
2022/05/07 11:30:10;;;;;;;11.80;8.10;;;21.30;74.90;;;;;;4956166;29;20401;-67
2022/05/07 11:32:42;;;;;;;11.43;9.10;;;21.30;74.80;;;;;;4954692;29;20419;-67
2022/05/07 11:35:09;;;;;;;12.00;8.70;;;21.30;74.70;;;;;;4938816;29;20417;-67
2022/05/07 11:37:40;;;;;;;13.43;9.30;;;21.40;74.70;;;;;;4954012;28;20469;-67
2022/05/07 11:40:08;;;;;;;12.63;9.03;;;21.40;74.60;;;;;;4935384;29;20462;-67
2022/05/07 11:42:35;;;;;;;12.37;8.87;;;21.40;74.50;;;;;;4917731;29;20966;-67
2022/05/07 11:48:13;;;;;;;11.20;9.30;;;21.50;74.50;;;;;;4935241;29;20429;-67
2022/05/07 11:50:50;;;;;;;11.20;8.67;;;21.60;74.50;;;;;;4919568;29;20517;-67
2022/05/07 11:53:23;;;;;;;9.03;7.77;;;21.60;74.40;;;;;;4935055;29;20443;-66
2022/05/07 11:55:54;;;;;;;10.53;9.13;;;21.70;74.30;;;;;;4919467;29;20408;-66
2022/05/07 11:58:22;;;;;;;10.50;8.30;;;21.70;74.20;;;;;;4935099;29;20520;-68
2022/05/07 12:00:55;;;;;;;11.70;9.33;;;21.70;74.00;;;;;;4919587;29;20526;-66
2022/05/07 12:03:28;;;;;;;11.37;8.40;;;21.70;73.70;;;;;;4919364;29;20514;-69
2022/05/07 12:05:56;;;;;;;11.97;9.10;;;21.80;73.60;;;;;;4946288;29;20442;-67
2022/05/07 12:08:25;;;;;;;12.90;9.03;;;21.80;73.50;;;;;;4935979;29;20458;-67
2022/05/07 12:10:55;;;;;;;12.83;9.03;;;21.80;73.30;;;;;;4934461;29;20984;-67
2022/05/07 12:13:28;;;;;;;9.77;8.40;;;21.90;73.40;;;;;;4949769;28;20423;-67
2022/05/07 12:18:51;;;;;;;11.83;7.77;;;22.00;73.30;;;;;;4935164;29;20481;-67
2022/05/07 12:29:48;;;;;;;11.90;8.20;;;22.00;73.40;;;;;;4935170;29;20815;-68
2022/05/07 12:29:52;;;;;;;11.10;8.57;;;22.10;73.60;;;;;;4937909;29;20522;-68
2022/05/07 12:32:21;;;;;;;9.60;8.13;;;22.10;73.60;;;;;;4952805;28;20485;-67
2022/05/07 12:34:48;;;;;;;10.83;7.40;;;22.20;73.70;;;;;;4950559;29;20494;-67
2022/05/07 12:37:17;;;;;;;10.00;8.77;;;22.20;73.80;;;;;;4934022;29;20792;-67
2022/05/07 12:39:43;;;;;;;10.03;8.37;;;22.20;73.80;;;;;;4951840;29;20469;-67
2022/05/07 12:42:12;;;;;;;10.30;8.20;;;22.20;73.80;;;;;;4953563;29;20242;-68
2022/05/07 12:44:41;;;;;;;8.90;7.83;;;22.30;73.80;;;;;;4970207;28;20418;-68
2022/05/07 12:47:07;;;;;;;8.93;7.50;;;22.30;73.80;;;;;;4937173;29;20442;-67
2022/05/07 12:49:38;;;;;;;9.23;6.87;;;22.30;73.70;;;;;;4948311;29;20451;-67
2022/05/07 12:52:07;;;;;;;10.03;7.70;;;22.30;73.60;;;;;;4937955;29;20525;-67
2022/05/07 12:54:39;;;;;;;7.30;6.60;;;22.40;73.70;;;;;;4938588;29;20421;-68
2022/05/07 12:57:06;;;;;;;9.33;7.73;;;22.40;73.70;;;;;;4955835;28;20458;-67
2022/05/07 12:59:36;;;;;;;9.87;7.87;;;22.40;73.70;;;;;;4938027;29;20456;-67
2022/05/07 13:02:08;;;;;;;9.43;7.13;;;22.40;73.70;;;;;;4954152;29;20418;-67
2022/05/07 13:04:37;;;;;;;7.90;7.10;;;22.50;73.70;;;;;;4954172;29;20779;-67
2022/05/07 13:07:10;;;;;;;13.00;8.77;;;22.50;73.60;;;;;;4955190;29;20410;-67
2022/05/07 13:09:38;;;;;;;9.93;8.13;;;22.50;73.50;;;;;;4955118;29;20491;-67
2022/05/07 13:12:10;;;;;;;8.70;7.30;;;22.50;73.10;;;;;;4955129;29;20485;-67
2022/05/07 13:14:36;;;;;;;9.33;7.70;;;22.60;73.10;;;;;;4938239;29;20430;-67
2022/05/07 13:17:03;;;;;;;8.40;7.30;;;22.60;73.20;;;;;;4954082;29;20508;-67
2022/05/07 13:19:30;;;;;;;9.80;8.07;;;22.60;73.00;;;;;;4955099;29;20501;-67
2022/05/07 13:21:58;;;;;;;11.00;8.43;;;22.60;72.80;;;;;;4954481;29;20404;-67
2022/05/07 13:24:24;;;;;;;12.83;7.30;;;22.70;72.80;;;;;;4955125;29;20478;-67
2022/05/07 13:26:51;;;;;;;10.37;7.60;;;22.70;72.60;;;;;;4938185;29;20418;-67
2022/05/07 13:29:16;;;;;;;9.83;7.20;;;22.80;72.70;;;;;;4954917;29;20250;-67
2022/05/07 13:31:47;;;;;;;7.77;7.07;;;22.80;72.70;;;;;;4937848;29;20450;-67
2022/05/07 13:34:18;;;;;;;8.93;6.93;;;22.80;72.60;;;;;;4922289;29;20449;-67
2022/05/07 13:36:46;;;;;;;8.97;8.03;;;22.90;72.60;;;;;;4953795;29;20822;-67